sensor_id;sensor_type;location;lat;lon;timestamp;pressure;altitude;pressure_sealevel;temperature;humidity
30935;BME280;51033;42.648;23.292;2023-02-01T00:00:20;93893.81;;;-0.35;58.95
30935;BME280;51033;42.648;23.292;2023-02-01T00:02:45;93836.31;;;-0.78;58.88
30935;BME280;51033;42.648;23.292;2023-02-01T00:05:11;93914.56;;;-0.23;58.87
30935;BME280;51033;42.648;23.292;2023-02-01T00:07:37;93882.94;;;-0.48;58.50
30935;BME280;51033;42.648;23.292;2023-02-01T00:10:04;93912.56;;;-0.38;58.55
30935;BME280;51033;42.648;23.292;2023-02-01T00:12:30;93911.19;;;-0.45;58.66
30935;BME280;51033;42.648;23.292;2023-02-01T00:14:55;93920.78;;;-0.51;58.84
30935;BME280;51033;42.648;23.292;2023-02-01T00:17:21;93911.28;;;-0.57;59.05
30935;BME280;51033;42.648;23.292;2023-02-01T00:19:46;93875.69;;;-0.63;58.55
30935;BME280;51033;42.648;23.292;2023-02-01T00:22:12;93899.19;;;-0.41;58.39
30935;BME280;51033;42.648;23.292;2023-02-01T00:24:37;93879.72;;;-0.34;57.07
30935;BME280;51033;42.648;23.292;2023-02-01T00:27:03;93892.03;;;-0.51;57.66
30935;BME280;51033;42.648;23.292;2023-02-01T00:29:28;93902.19;;;-0.33;57.46
30935;BME280;51033;42.648;23.292;2023-02-01T00:31:53;93890.03;;;-0.44;57.07
30935;BME280;51033;42.648;23.292;2023-02-01T00:34:19;93902.28;;;-0.23;56.81
30935;BME280;51033;42.648;23.292;2023-02-01T00:36:45;93904.38;;;-0.25;56.61
30935;BME280;51033;42.648;23.292;2023-02-01T00:39:11;93905.53;;;-0.16;56.47
30935;BME280;51033;42.648;23.292;2023-02-01T00:41:37;93886.94;;;-0.41;56.21
30935;BME280;51033;42.648;23.292;2023-02-01T00:44:03;93877.38;;;-0.52;56.37
30935;BME280;51033;42.648;23.292;2023-02-01T00:46:28;93880.25;;;-0.54;56.64
30935;BME280;51033;42.648;23.292;2023-02-01T00:48:54;93878.53;;;-0.43;56.36
30935;BME280;51033;42.648;23.292;2023-02-01T00:51:26;93893.19;;;-0.42;56.08
30935;BME280;51033;42.648;23.292;2023-02-01T00:53:52;93880.31;;;-0.48;56.23
30935;BME280;51033;42.648;23.292;2023-02-01T00:56:18;93893.59;;;-0.28;55.75
30935;BME280;51033;42.648;23.292;2023-02-01T00:58:43;93888.81;;;-0.15;54.95
30935;BME280;51033;42.648;23.292;2023-02-01T01:01:15;93888.88;;;-0.31;54.88
30935;BME280;51033;42.648;23.292;2023-02-01T01:03:42;93882.47;;;-0.19;54.67
30935;BME280;51033;42.648;23.292;2023-02-01T01:06:13;93857.63;;;-0.43;54.50
30935;BME280;51033;42.648;23.292;2023-02-01T01:08:40;93887.22;;;-0.16;54.18
30935;BME280;51033;42.648;23.292;2023-02-01T01:11:07;93880.53;;;-0.07;53.54
30935;BME280;51033;42.648;23.292;2023-02-01T01:13:34;93888.72;;;0.02;53.51
30935;BME280;51033;42.648;23.292;2023-02-01T01:16:01;93859.75;;;-0.18;53.30
30935;BME280;51033;42.648;23.292;2023-02-01T01:18:28;93876.88;;;-0.05;53.54
30935;BME280;51033;42.648;23.292;2023-02-01T01:20:54;93885.94;;;-0.13;53.16
30935;BME280;51033;42.648;23.292;2023-02-01T01:23:19;93888.31;;;-0.12;52.96
30935;BME280;51033;42.648;23.292;2023-02-01T01:25:45;93879.88;;;-0.19;52.73
30935;BME280;51033;42.648;23.292;2023-02-01T01:28:10;93870.75;;;-0.16;52.95
30935;BME280;51033;42.648;23.292;2023-02-01T01:30:36;93882.22;;;0.05;52.30
30935;BME280;51033;42.648;23.292;2023-02-01T01:33:01;93862.72;;;-0.10;52.46
30935;BME280;51033;42.648;23.292;2023-02-01T01:35:29;93868.09;;;0.06;51.90
30935;BME280;51033;42.648;23.292;2023-02-01T01:37:55;93881.91;;;0.01;51.76
30935;BME280;51033;42.648;23.292;2023-02-01T01:40:21;93881.28;;;-0.33;52.24
30935;BME280;51033;42.648;23.292;2023-02-01T01:42:46;93895.47;;;-0.24;52.63
30935;BME280;51033;42.648;23.292;2023-02-01T01:45:25;93897.13;;;-0.18;52.56
30935;BME280;51033;42.648;23.292;2023-02-01T01:47:57;93885.66;;;-0.60;52.73
30935;BME280;51033;42.648;23.292;2023-02-01T01:50:32;93906.25;;;-0.42;53.17
30935;BME280;51033;42.648;23.292;2023-02-01T01:53:00;93901.28;;;-0.43;53.14
30935;BME280;51033;42.648;23.292;2023-02-01T01:55:30;93866.50;;;-0.66;52.93
30935;BME280;51033;42.648;23.292;2023-02-01T01:58:00;93894.16;;;-0.48;53.09
30935;BME280;51033;42.648;23.292;2023-02-01T02:00:27;93889.78;;;-0.64;53.35
30935;BME280;51033;42.648;23.292;2023-02-01T02:02:59;93852.78;;;-0.78;53.20
30935;BME280;51033;42.648;23.292;2023-02-01T02:05:26;93878.25;;;-0.68;52.99
30935;BME280;51033;42.648;23.292;2023-02-01T02:07:53;93875.28;;;-0.72;53.09
30935;BME280;51033;42.648;23.292;2023-02-01T02:10:22;93886.66;;;-0.61;53.19
30935;BME280;51033;42.648;23.292;2023-02-01T02:13:07;93855.00;;;-0.86;53.09
30935;BME280;51033;42.648;23.292;2023-02-01T02:15:34;93866.06;;;-0.79;53.44
30935;BME280;51033;42.648;23.292;2023-02-01T02:18:44;93854.84;;;-0.97;53.49
30935;BME280;51033;42.648;23.292;2023-02-01T02:21:23;93874.78;;;-0.90;53.38
30935;BME280;51033;42.648;23.292;2023-02-01T02:29:33;93882.53;;;-0.79;53.09
30935;BME280;51033;42.648;23.292;2023-02-01T02:43:45;93879.34;;;-1.53;54.48
30935;BME280;51033;42.648;23.292;2023-02-01T02:46:46;93861.72;;;-1.62;54.66
30935;BME280;51033;42.648;23.292;2023-02-01T02:53:02;93847.00;;;-1.68;55.12
30935;BME280;51033;42.648;23.292;2023-02-01T02:55:50;93849.59;;;-1.68;54.88
30935;BME280;51033;42.648;23.292;2023-02-01T02:58:16;93878.84;;;-1.50;54.38
30935;BME280;51033;42.648;23.292;2023-02-01T03:01:01;93876.69;;;-1.69;54.42
30935;BME280;51033;42.648;23.292;2023-02-01T03:03:46;93867.00;;;-2.02;54.82
30935;BME280;51033;42.648;23.292;2023-02-01T03:06:32;93880.47;;;-1.94;55.16
30935;BME280;51033;42.648;23.292;2023-02-01T03:08:58;93836.75;;;-2.20;55.07
30935;BME280;51033;42.648;23.292;2023-02-01T03:11:26;93877.31;;;-1.96;55.01
30935;BME280;51033;42.648;23.292;2023-02-01T03:14:12;93900.75;;;-1.96;55.21
30935;BME280;51033;42.648;23.292;2023-02-01T03:16:48;93903.81;;;-1.99;55.63
30935;BME280;51033;42.648;23.292;2023-02-01T03:19:27;93902.81;;;-1.98;55.89
30935;BME280;51033;42.648;23.292;2023-02-01T03:24:26;93905.38;;;-1.86;56.08
30935;BME280;51033;42.648;23.292;2023-02-01T03:32:12;93914.44;;;-1.89;56.29
30935;BME280;51033;42.648;23.292;2023-02-01T03:34:37;93897.19;;;-1.90;56.64
30935;BME280;51033;42.648;23.292;2023-02-01T03:37:06;93900.47;;;-1.83;56.21
30935;BME280;51033;42.648;23.292;2023-02-01T03:39:46;93907.38;;;-1.76;56.74
30935;BME280;51033;42.648;23.292;2023-02-01T03:42:18;93870.50;;;-1.97;56.33
30935;BME280;51033;42.648;23.292;2023-02-01T03:45:14;93898.66;;;-1.65;55.75
30935;BME280;51033;42.648;23.292;2023-02-01T03:47:45;93904.06;;;-1.55;55.51
30935;BME280;51033;42.648;23.292;2023-02-01T03:50:16;93863.56;;;-1.74;55.38
30935;BME280;51033;42.648;23.292;2023-02-01T03:52:50;93896.94;;;-1.60;55.70
30935;BME280;51033;42.648;23.292;2023-02-01T03:55:18;93877.66;;;-1.59;55.61
30935;BME280;51033;42.648;23.292;2023-02-01T03:57:55;93885.09;;;-1.51;55.29
30935;BME280;51033;42.648;23.292;2023-02-01T04:00:24;93892.47;;;-1.48;55.38
30935;BME280;51033;42.648;23.292;2023-02-01T04:02:50;93867.38;;;-1.65;55.67
30935;BME280;51033;42.648;23.292;2023-02-01T04:05:16;93901.69;;;-1.40;55.90
30935;BME280;51033;42.648;23.292;2023-02-01T04:07:42;93883.84;;;-1.48;55.66
30935;BME280;51033;42.648;23.292;2023-02-01T04:10:09;93899.44;;;-1.36;55.95
30935;BME280;51033;42.648;23.292;2023-02-01T04:12:34;93885.25;;;-1.41;55.69
30935;BME280;51033;42.648;23.292;2023-02-01T04:15:00;93895.84;;;-1.30;56.05
30935;BME280;51033;42.648;23.292;2023-02-01T04:17:25;93888.19;;;-1.54;56.75
30935;BME280;51033;42.648;23.292;2023-02-01T04:19:51;93851.34;;;-1.57;56.61
30935;BME280;51033;42.648;23.292;2023-02-01T04:22:16;93891.03;;;-1.55;57.45
30935;BME280;51033;42.648;23.292;2023-02-01T04:24:42;93901.41;;;-1.27;57.23
30935;BME280;51033;42.648;23.292;2023-02-01T04:27:07;93878.78;;;-1.55;57.67
30935;BME280;51033;42.648;23.292;2023-02-01T04:29:33;93885.88;;;-1.67;58.36
30935;BME280;51033;42.648;23.292;2023-02-01T04:31:58;93895.59;;;-1.62;58.90
30935;BME280;51033;42.648;23.292;2023-02-01T04:34:23;93871.03;;;-1.66;58.58
30935;BME280;51033;42.648;23.292;2023-02-01T04:36:50;93907.63;;;-1.11;58.08
30935;BME280;51033;42.648;23.292;2023-02-01T04:39:15;93874.06;;;-1.41;58.19
30935;BME280;51033;42.648;23.292;2023-02-01T04:41:41;93903.16;;;-1.32;59.00
30935;BME280;51033;42.648;23.292;2023-02-01T04:44:12;93862.97;;;-1.48;58.74
30935;BME280;51033;42.648;23.292;2023-02-01T04:46:38;93911.06;;;-1.27;58.92
30935;BME280;51033;42.648;23.292;2023-02-01T04:49:03;93902.44;;;-1.28;58.96
30935;BME280;51033;42.648;23.292;2023-02-01T04:51:29;93917.34;;;-1.07;58.80
30935;BME280;51033;42.648;23.292;2023-02-01T04:53:55;93888.91;;;-1.25;58.73
30935;BME280;51033;42.648;23.292;2023-02-01T04:56:21;93886.06;;;-1.40;59.62
30935;BME280;51033;42.648;23.292;2023-02-01T04:58:46;93924.16;;;-1.06;59.52
30935;BME280;51033;42.648;23.292;2023-02-01T05:01:12;93935.06;;;-0.92;59.45
30935;BME280;51033;42.648;23.292;2023-02-01T05:03:37;93927.31;;;-0.87;58.98
30935;BME280;51033;42.648;23.292;2023-02-01T05:06:02;93925.41;;;-0.91;58.65
30935;BME280;51033;42.648;23.292;2023-02-01T05:08:30;93912.28;;;-0.97;58.76
30935;BME280;51033;42.648;23.292;2023-02-01T05:10:56;93903.13;;;-1.16;58.99
30935;BME280;51033;42.648;23.292;2023-02-01T05:13:21;93908.97;;;-1.25;59.63
30935;BME280;51033;42.648;23.292;2023-02-01T05:16:05;93947.91;;;-1.24;60.12
30935;BME280;51033;42.648;23.292;2023-02-01T05:18:31;93939.34;;;-1.36;60.73
30935;BME280;51033;42.648;23.292;2023-02-01T05:20:56;93927.78;;;-1.40;61.05
30935;BME280;51033;42.648;23.292;2023-02-01T05:23:22;93933.34;;;-1.36;61.42
30935;BME280;51033;42.648;23.292;2023-02-01T05:25:47;93931.13;;;-1.28;61.25
30935;BME280;51033;42.648;23.292;2023-02-01T05:28:13;93950.59;;;-1.19;61.19
30935;BME280;51033;42.648;23.292;2023-02-01T05:30:38;93911.28;;;-1.29;61.19
30935;BME280;51033;42.648;23.292;2023-02-01T05:33:03;93935.53;;;-1.12;61.11
30935;BME280;51033;42.648;23.292;2023-02-01T05:35:29;93946.72;;;-1.00;60.48
30935;BME280;51033;42.648;23.292;2023-02-01T05:37:55;93949.09;;;-0.98;60.29
30935;BME280;51033;42.648;23.292;2023-02-01T05:40:20;93906.59;;;-1.10;59.79
30935;BME280;51033;42.648;23.292;2023-02-01T05:42:46;93943.94;;;-0.93;60.15
30935;BME280;51033;42.648;23.292;2023-02-01T05:45:11;93924.81;;;-0.99;59.14
30935;BME280;51033;42.648;23.292;2023-02-01T05:47:36;93953.13;;;-0.90;59.61
30935;BME280;51033;42.648;23.292;2023-02-01T05:50:03;93941.50;;;-0.83;58.87
30935;BME280;51033;42.648;23.292;2023-02-01T05:52:29;93943.94;;;-0.93;59.05
30935;BME280;51033;42.648;23.292;2023-02-01T05:54:54;93947.47;;;-0.82;58.45
30935;BME280;51033;42.648;23.292;2023-02-01T05:57:20;93938.69;;;-0.76;58.23
30935;BME280;51033;42.648;23.292;2023-02-01T05:59:45;93922.88;;;-0.70;57.49
30935;BME280;51033;42.648;23.292;2023-02-01T06:02:13;93934.72;;;-0.62;57.12
30935;BME280;51033;42.648;23.292;2023-02-01T06:04:39;93931.56;;;-0.64;57.15
30935;BME280;51033;42.648;23.292;2023-02-01T06:07:05;93948.75;;;-0.68;57.48
30935;BME280;51033;42.648;23.292;2023-02-01T06:09:33;93948.91;;;-0.58;57.51
30935;BME280;51033;42.648;23.292;2023-02-01T06:11:59;93935.34;;;-0.55;56.81
30935;BME280;51033;42.648;23.292;2023-02-01T06:14:26;93952.69;;;-0.49;56.47
30935;BME280;51033;42.648;23.292;2023-02-01T06:16:53;93945.66;;;-0.65;56.98
30935;BME280;51033;42.648;23.292;2023-02-01T06:19:18;93924.38;;;-0.74;56.57
30935;BME280;51033;42.648;23.292;2023-02-01T06:21:44;93937.75;;;-0.70;56.87
30935;BME280;51033;42.648;23.292;2023-02-01T06:24:09;93940.50;;;-0.60;56.22
30935;BME280;51033;42.648;23.292;2023-02-01T06:26:34;93959.06;;;-0.40;55.81
30935;BME280;51033;42.648;23.292;2023-02-01T06:29:01;93953.78;;;-0.45;55.33
30935;BME280;51033;42.648;23.292;2023-02-01T06:31:26;93950.66;;;-0.42;55.56
30935;BME280;51033;42.648;23.292;2023-02-01T06:33:52;93951.75;;;-0.38;55.82
30935;BME280;51033;42.648;23.292;2023-02-01T06:36:18;93946.94;;;-0.29;54.64
30935;BME280;51033;42.648;23.292;2023-02-01T06:38:47;93941.88;;;-0.36;54.56
30935;BME280;51033;42.648;23.292;2023-02-01T06:41:13;93947.75;;;-0.45;54.86
30935;BME280;51033;42.648;23.292;2023-02-01T06:43:39;93950.59;;;-0.47;54.59
30935;BME280;51033;42.648;23.292;2023-02-01T06:46:07;93973.22;;;-0.36;54.20
30935;BME280;51033;42.648;23.292;2023-02-01T06:48:33;93961.75;;;-0.35;54.29
30935;BME280;51033;42.648;23.292;2023-02-01T06:50:58;93942.25;;;-0.66;54.03
30935;BME280;51033;42.648;23.292;2023-02-01T06:53:24;93953.00;;;-0.62;54.15
30935;BME280;51033;42.648;23.292;2023-02-01T06:56:00;93976.13;;;-0.54;54.55
30935;BME280;51033;42.648;23.292;2023-02-01T06:58:31;93951.59;;;-0.70;55.46
30935;BME280;51033;42.648;23.292;2023-02-01T07:00:57;93974.31;;;-0.54;54.60
30935;BME280;51033;42.648;23.292;2023-02-01T07:03:23;93985.19;;;-0.40;55.28
30935;BME280;51033;42.648;23.292;2023-02-01T07:05:49;93979.84;;;-0.50;54.43
30935;BME280;51033;42.648;23.292;2023-02-01T07:08:14;94007.69;;;-0.39;54.44
30935;BME280;51033;42.648;23.292;2023-02-01T07:10:40;93994.22;;;-0.31;54.43
30935;BME280;51033;42.648;23.292;2023-02-01T07:13:05;94002.19;;;-0.21;54.07
30935;BME280;51033;42.648;23.292;2023-02-01T07:15:30;93966.19;;;-0.35;54.04
30935;BME280;51033;42.648;23.292;2023-02-01T07:17:56;94006.06;;;-0.23;54.43
30935;BME280;51033;42.648;23.292;2023-02-01T07:20:22;94012.41;;;-0.19;54.25
30935;BME280;51033;42.648;23.292;2023-02-01T07:22:48;94015.84;;;-0.14;54.13
30935;BME280;51033;42.648;23.292;2023-02-01T07:25:13;94009.47;;;-0.23;54.61
30935;BME280;51033;42.648;23.292;2023-02-01T07:27:39;94007.94;;;-0.19;54.26
30935;BME280;51033;42.648;23.292;2023-02-01T07:30:05;94010.38;;;-0.34;53.81
30935;BME280;51033;42.648;23.292;2023-02-01T07:32:31;94013.66;;;-0.22;53.40
30935;BME280;51033;42.648;23.292;2023-02-01T07:34:57;94013.06;;;-0.29;53.82
30935;BME280;51033;42.648;23.292;2023-02-01T07:37:23;93986.78;;;-0.39;53.32
30935;BME280;51033;42.648;23.292;2023-02-01T07:39:51;94007.66;;;-0.22;53.64
30935;BME280;51033;42.648;23.292;2023-02-01T07:42:17;93970.47;;;-0.46;53.07
30935;BME280;51033;42.648;23.292;2023-02-01T07:44:42;94025.72;;;-0.21;52.98
30935;BME280;51033;42.648;23.292;2023-02-01T07:47:08;94018.41;;;-0.19;53.89
30935;BME280;51033;42.648;23.292;2023-02-01T07:49:33;93976.84;;;-0.59;53.17
30935;BME280;51033;42.648;23.292;2023-02-01T07:51:59;94003.63;;;-0.30;53.46
30935;BME280;51033;42.648;23.292;2023-02-01T07:54:24;94003.00;;;-0.37;53.73
30935;BME280;51033;42.648;23.292;2023-02-01T07:56:49;94016.13;;;-0.32;53.30
30935;BME280;51033;42.648;23.292;2023-02-01T07:59:15;93965.84;;;-0.61;53.30
30935;BME280;51033;42.648;23.292;2023-02-01T08:01:41;94030.59;;;-0.08;52.52
30935;BME280;51033;42.648;23.292;2023-02-01T08:04:10;94025.06;;;-0.11;52.73
30935;BME280;51033;42.648;23.292;2023-02-01T08:06:36;94040.66;;;0.01;52.61
30935;BME280;51033;42.648;23.292;2023-02-01T08:09:02;94047.03;;;0.10;52.28
30935;BME280;51033;42.648;23.292;2023-02-01T08:11:30;94029.50;;;-0.12;52.32
30935;BME280;51033;42.648;23.292;2023-02-01T08:13:55;94033.28;;;-0.02;52.33
30935;BME280;51033;42.648;23.292;2023-02-01T08:16:22;94030.00;;;0.07;52.19
30935;BME280;51033;42.648;23.292;2023-02-01T08:18:48;94000.84;;;-0.23;53.19
30935;BME280;51033;42.648;23.292;2023-02-01T08:21:21;94036.59;;;0.10;52.60
30935;BME280;51033;42.648;23.292;2023-02-01T08:23:47;94035.66;;;-0.01;52.71
30935;BME280;51033;42.648;23.292;2023-02-01T08:28:46;94037.66;;;0.14;52.52
30935;BME280;51033;42.648;23.292;2023-02-01T08:31:15;94040.06;;;0.15;52.99
30935;BME280;51033;42.648;23.292;2023-02-01T08:33:42;94044.97;;;0.12;52.95
30935;BME280;51033;42.648;23.292;2023-02-01T08:36:10;94028.00;;;0.14;51.99
30935;BME280;51033;42.648;23.292;2023-02-01T08:38:36;94037.97;;;0.17;52.38
30935;BME280;51033;42.648;23.292;2023-02-01T08:41:07;94039.78;;;0.17;53.01
30935;BME280;51033;42.648;23.292;2023-02-01T08:43:33;94047.88;;;0.37;52.63
30935;BME280;51033;42.648;23.292;2023-02-01T08:45:58;94042.53;;;0.49;52.47
30935;BME280;51033;42.648;23.292;2023-02-01T08:48:23;94013.19;;;0.47;51.13
30935;BME280;51033;42.648;23.292;2023-02-01T08:50:49;94026.84;;;0.49;51.85
30935;BME280;51033;42.648;23.292;2023-02-01T08:53:14;94037.38;;;0.54;51.70
30935;BME280;51033;42.648;23.292;2023-02-01T08:55:39;94027.06;;;0.47;51.78
30935;BME280;51033;42.648;23.292;2023-02-01T08:58:05;94024.06;;;0.60;51.76
30935;BME280;51033;42.648;23.292;2023-02-01T09:00:30;94025.59;;;0.56;51.22
30935;BME280;51033;42.648;23.292;2023-02-01T09:02:55;94011.50;;;0.57;50.95
30935;BME280;51033;42.648;23.292;2023-02-01T09:05:21;94025.03;;;0.49;51.11
30935;BME280;51033;42.648;23.292;2023-02-01T09:07:48;94044.03;;;0.66;51.44
30935;BME280;51033;42.648;23.292;2023-02-01T09:10:13;94017.41;;;0.74;50.86
30935;BME280;51033;42.648;23.292;2023-02-01T09:12:39;94001.97;;;0.73;51.14
30935;BME280;51033;42.648;23.292;2023-02-01T09:15:05;94021.19;;;0.84;50.50
30935;BME280;51033;42.648;23.292;2023-02-01T09:17:32;94027.97;;;0.85;50.38
30935;BME280;51033;42.648;23.292;2023-02-01T09:19:57;94033.03;;;0.91;50.52
30935;BME280;51033;42.648;23.292;2023-02-01T09:22:23;94019.09;;;0.86;50.73
30935;BME280;51033;42.648;23.292;2023-02-01T09:24:49;94027.75;;;1.13;50.09
30935;BME280;51033;42.648;23.292;2023-02-01T09:27:14;94023.22;;;1.03;49.59
30935;BME280;51033;42.648;23.292;2023-02-01T09:29:39;94047.25;;;1.27;49.71
30935;BME280;51033;42.648;23.292;2023-02-01T09:32:05;94034.91;;;0.96;49.83
30935;BME280;51033;42.648;23.292;2023-02-01T09:34:32;94038.38;;;1.01;50.31
30935;BME280;51033;42.648;23.292;2023-02-01T09:36:57;94040.94;;;1.28;49.56
30935;BME280;51033;42.648;23.292;2023-02-01T09:39:23;94032.00;;;1.24;49.06
30935;BME280;51033;42.648;23.292;2023-02-01T09:47:23;93977.00;;;0.92;48.92
30935;BME280;51033;42.648;23.292;2023-02-01T09:52:27;93983.13;;;1.03;48.64
30935;BME280;51033;42.648;23.292;2023-02-01T09:55:01;93988.84;;;1.00;48.83
30935;BME280;51033;42.648;23.292;2023-02-01T09:57:44;94002.94;;;0.94;48.91
30935;BME280;51033;42.648;23.292;2023-02-01T10:00:20;93986.69;;;0.92;49.04
30935;BME280;51033;42.648;23.292;2023-02-01T10:02:49;93966.31;;;0.99;49.37
30935;BME280;51033;42.648;23.292;2023-02-01T10:05:21;93992.38;;;1.15;48.29
30935;BME280;51033;42.648;23.292;2023-02-01T10:08:03;93987.31;;;1.04;48.84
30935;BME280;51033;42.648;23.292;2023-02-01T10:10:51;93996.84;;;1.15;48.84
30935;BME280;51033;42.648;23.292;2023-02-01T10:24:02;93979.44;;;1.36;49.00
30935;BME280;51033;42.648;23.292;2023-02-01T10:26:39;93954.75;;;1.27;48.41
30935;BME280;51033;42.648;23.292;2023-02-01T10:29:15;93970.50;;;1.32;48.04
30935;BME280;51033;42.648;23.292;2023-02-01T10:31:43;93933.75;;;1.21;48.32
30935;BME280;51033;42.648;23.292;2023-02-01T10:34:21;93957.38;;;1.68;48.10
30935;BME280;51033;42.648;23.292;2023-02-01T10:36:53;93949.28;;;1.75;48.02
30935;BME280;51033;42.648;23.292;2023-02-01T10:39:19;93895.69;;;1.51;46.84
30935;BME280;51033;42.648;23.292;2023-02-01T10:41:45;93943.78;;;1.82;46.88
30935;BME280;51033;42.648;23.292;2023-02-01T10:44:23;93957.13;;;1.70;47.10
30935;BME280;51033;42.648;23.292;2023-02-01T10:46:50;93935.56;;;1.63;47.10
30935;BME280;51033;42.648;23.292;2023-02-01T10:54:38;93960.38;;;1.45;47.73
30935;BME280;51033;42.648;23.292;2023-02-01T10:57:23;93892.41;;;0.92;47.89
30935;BME280;51033;42.648;23.292;2023-02-01T10:59:53;93938.72;;;1.18;48.06
30935;BME280;51033;42.648;23.292;2023-02-01T11:02:29;93918.34;;;1.30;47.98
30935;BME280;51033;42.648;23.292;2023-02-01T11:05:08;93946.56;;;1.60;47.46
30935;BME280;51033;42.648;23.292;2023-02-01T11:07:38;93911.34;;;1.41;46.92
30935;BME280;51033;42.648;23.292;2023-02-01T11:10:04;93960.81;;;1.74;46.92
30935;BME280;51033;42.648;23.292;2023-02-01T11:12:36;93954.25;;;1.77;47.16
30935;BME280;51033;42.648;23.292;2023-02-01T11:17:40;93943.25;;;1.75;47.59
30935;BME280;51033;42.648;23.292;2023-02-01T11:20:16;93936.16;;;1.70;47.08
30935;BME280;51033;42.648;23.292;2023-02-01T11:22:53;93943.28;;;1.85;47.57
30935;BME280;51033;42.648;23.292;2023-02-01T11:25:19;93953.88;;;1.95;47.28
30935;BME280;51033;42.648;23.292;2023-02-01T11:27:47;93930.53;;;1.98;47.00
30935;BME280;51033;42.648;23.292;2023-02-01T11:32:52;93916.66;;;2.03;47.46
30935;BME280;51033;42.648;23.292;2023-02-01T11:35:20;93920.91;;;2.24;46.32
30935;BME280;51033;42.648;23.292;2023-02-01T11:37:52;93930.88;;;2.22;45.55
30935;BME280;51033;42.648;23.292;2023-02-01T11:45:25;93923.53;;;2.19;46.01
30935;BME280;51033;42.648;23.292;2023-02-01T11:47:52;93920.63;;;2.26;46.48
30935;BME280;51033;42.648;23.292;2023-02-01T11:50:25;93919.34;;;2.28;45.73
30935;BME280;51033;42.648;23.292;2023-02-01T11:53:20;93919.38;;;2.33;46.05
30935;BME280;51033;42.648;23.292;2023-02-01T11:56:11;93878.41;;;2.27;46.20
30935;BME280;51033;42.648;23.292;2023-02-01T11:58:57;93912.03;;;2.45;45.86
30935;BME280;51033;42.648;23.292;2023-02-01T12:07:11;93901.06;;;2.79;45.76
30935;BME280;51033;42.648;23.292;2023-02-01T12:20:23;93896.06;;;3.03;44.80
30935;BME280;51033;42.648;23.292;2023-02-01T12:34:46;93883.66;;;3.28;44.63
30935;BME280;51033;42.648;23.292;2023-02-01T12:39:26;93887.38;;;3.27;43.89
30935;BME280;51033;42.648;23.292;2023-02-01T12:49:57;93883.72;;;2.98;44.18
30935;BME280;51033;42.648;23.292;2023-02-01T12:52:43;93895.78;;;2.94;44.26
30935;BME280;51033;42.648;23.292;2023-02-01T12:57:52;93887.91;;;2.94;45.31
30935;BME280;51033;42.648;23.292;2023-02-01T13:02:57;93876.34;;;2.70;45.15
30935;BME280;51033;42.648;23.292;2023-02-01T13:08:22;93850.38;;;2.58;44.12
30935;BME280;51033;42.648;23.292;2023-02-01T13:11:29;93884.22;;;2.85;44.21
30935;BME280;51033;42.648;23.292;2023-02-01T13:14:13;93888.44;;;2.91;44.20
30935;BME280;51033;42.648;23.292;2023-02-01T13:16:44;93903.16;;;3.12;44.17
30935;BME280;51033;42.648;23.292;2023-02-01T13:22:05;93888.97;;;3.08;43.79
30935;BME280;51033;42.648;23.292;2023-02-01T13:24:40;93892.09;;;3.20;44.03
30935;BME280;51033;42.648;23.292;2023-02-01T13:27:10;93899.97;;;3.25;42.99
30935;BME280;51033;42.648;23.292;2023-02-01T13:29:37;93892.88;;;3.26;42.66
30935;BME280;51033;42.648;23.292;2023-02-01T13:35:13;93869.78;;;3.18;42.33
30935;BME280;51033;42.648;23.292;2023-02-01T13:40:40;93897.63;;;3.09;42.09
30935;BME280;51033;42.648;23.292;2023-02-01T13:45:35;93884.75;;;3.32;42.00
30935;BME280;51033;42.648;23.292;2023-02-01T13:48:04;93879.97;;;3.39;41.95
30935;BME280;51033;42.648;23.292;2023-02-01T13:50:33;93887.84;;;3.55;41.52
30935;BME280;51033;42.648;23.292;2023-02-01T13:53:16;93892.59;;;3.48;41.91
30935;BME280;51033;42.648;23.292;2023-02-01T13:55:46;93862.13;;;3.31;41.38
30935;BME280;51033;42.648;23.292;2023-02-01T13:58:30;93894.13;;;3.59;41.61
30935;BME280;51033;42.648;23.292;2023-02-01T14:03:54;93887.78;;;3.75;41.45
30935;BME280;51033;42.648;23.292;2023-02-01T14:16:38;93874.25;;;3.12;42.27
30935;BME280;51033;42.648;23.292;2023-02-01T14:19:08;93894.72;;;3.15;42.66
30935;BME280;51033;42.648;23.292;2023-02-01T14:21:46;93846.41;;;2.71;43.08
30935;BME280;51033;42.648;23.292;2023-02-01T14:24:25;93867.97;;;2.88;43.12
30935;BME280;51033;42.648;23.292;2023-02-01T14:26:55;93877.94;;;2.81;43.15
30935;BME280;51033;42.648;23.292;2023-02-01T14:29:34;93884.47;;;3.09;43.97
30935;BME280;51033;42.648;23.292;2023-02-01T14:32:04;93880.28;;;3.23;43.37
30935;BME280;51033;42.648;23.292;2023-02-01T14:42:43;93881.59;;;2.90;43.88
30935;BME280;51033;42.648;23.292;2023-02-01T14:58:25;93893.69;;;3.11;43.69
30935;BME280;51033;42.648;23.292;2023-02-01T15:00:56;93899.19;;;3.05;43.73
30935;BME280;51033;42.648;23.292;2023-02-01T15:06:33;93878.97;;;3.25;43.41
30935;BME280;51033;42.648;23.292;2023-02-01T15:09:03;93880.53;;;3.36;43.33
30935;BME280;51033;42.648;23.292;2023-02-01T15:11:29;93877.66;;;3.33;43.03
30935;BME280;51033;42.648;23.292;2023-02-01T15:13:54;93831.69;;;2.95;42.96
30935;BME280;51033;42.648;23.292;2023-02-01T15:16:23;93844.03;;;3.00;42.43
30935;BME280;51033;42.648;23.292;2023-02-01T15:18:49;93842.19;;;3.15;42.61
30935;BME280;51033;42.648;23.292;2023-02-01T15:23:43;93864.19;;;3.45;42.42
30935;BME280;51033;42.648;23.292;2023-02-01T15:26:08;93842.94;;;3.26;42.14
30935;BME280;51033;42.648;23.292;2023-02-01T15:28:33;93855.06;;;3.17;42.63
30935;BME280;51033;42.648;23.292;2023-02-01T15:31:02;93836.16;;;2.79;43.93
30935;BME280;51033;42.648;23.292;2023-02-01T15:33:29;93825.94;;;2.68;42.79
30935;BME280;51033;42.648;23.292;2023-02-01T15:36:17;93846.69;;;2.74;43.31
30935;BME280;51033;42.648;23.292;2023-02-01T15:38:44;93844.59;;;2.66;43.96
30935;BME280;51033;42.648;23.292;2023-02-01T15:41:18;93852.72;;;2.65;43.04
30935;BME280;51033;42.648;23.292;2023-02-01T15:48:52;93849.56;;;2.63;43.07
30935;BME280;51033;42.648;23.292;2023-02-01T15:51:23;93832.25;;;2.62;42.32
30935;BME280;51033;42.648;23.292;2023-02-01T15:54:02;93851.16;;;2.89;42.68